Time;durP1;ratioP1;P1;durP2;ratioP2;P2;SDS_P1;SDS_P2;PMS_P1;PMS_P2;Temp;Humidity;BMP_temperature;BMP_pressure;BME280_temperature;BME280_humidity;BME280_pressure;Samples;Min_cycle;Max_cycle;Signal;HPM_P1;HPM_P2
2023/06/02 00:00:52;;;;;;;;;;;;;;;21.67;29.85;97775.72;5067332;28;1674;-81
2023/06/02 00:03:18;;;;;;;;;;;;;;;21.58;29.90;97773.56;5066773;28;884;-82
2023/06/02 00:05:44;;;;;;;;;;;;;;;21.45;30.13;97774.75;5083914;28;751;-81
2023/06/02 00:08:11;;;;;;;;;;;;;;;21.61;29.76;97760.56;5065929;28;681;-81
2023/06/02 00:10:36;;;;;;;;;;;;;;;21.38;29.98;97758.78;5066684;28;1164;-82
2023/06/02 00:13:02;;;;;;;;;;;;;;;21.24;30.51;97762.00;5082934;28;1072;-81
2023/06/02 00:15:31;;;;;;;;;;;;;;;21.28;30.33;97757.84;5066827;28;1950;-82
2023/06/02 00:17:57;;;;;;;;;;;;;;;21.62;30.42;97767.00;5066120;28;1056;-82
2023/06/02 00:20:26;;;;;;;;;;;;;;;22.32;29.37;97760.34;5083044;28;946;-81
2023/06/02 00:22:57;;;;;;;;;;;;;;;22.50;29.31;97756.91;5066471;28;1265;-82
2023/06/02 00:25:22;;;;;;;;;;;;;;;22.19;29.51;97760.34;5066593;28;845;-82
2023/06/02 00:27:48;;;;;;;;;;;;;;;21.77;30.20;97763.28;5083090;28;913;-82
2023/06/02 00:30:14;;;;;;;;;;;;;;;21.65;29.98;97763.25;5066857;28;1236;-82
2023/06/02 00:32:39;;;;;;;;;;;;;;;21.53;30.38;97762.00;5066925;28;1198;-82
2023/06/02 00:35:05;;;;;;;;;;;;;;;21.41;30.48;97757.91;5084799;28;1891;-82
2023/06/02 00:37:31;;;;;;;;;;;;;;;21.29;30.50;97759.41;5053105;28;1065;-81
2023/06/02 00:39:56;;;;;;;;;;;;;;;21.44;30.07;97756.19;5052108;28;880;-81
2023/06/02 00:42:22;;;;;;;;;;;;;;;21.35;30.37;97754.06;5052886;28;1157;-80
2023/06/02 00:44:48;;;;;;;;;;;;;;;21.40;30.44;97755.50;5052089;28;1168;-82
2023/06/02 00:47:13;;;;;;;;;;;;;;;21.46;29.86;97756.56;5053472;28;1388;-82
2023/06/02 00:49:39;;;;;;;;;;;;;;;21.59;29.81;97751.69;5064918;28;983;-81
2023/06/02 00:52:05;;;;;;;;;;;;;;;21.41;29.94;97745.78;5066996;28;983;-81
2023/06/02 00:54:30;;;;;;;;;;;;;;;21.60;29.67;97750.44;5048524;28;1962;-81
2023/06/02 00:56:57;;;;;;;;;;;;;;;21.51;29.91;97751.13;5049546;28;1295;-82
2023/06/02 00:59:23;;;;;;;;;;;;;;;22.01;29.81;97748.78;5048356;28;1258;-81
2023/06/02 01:01:48;;;;;;;;;;;;;;;22.36;29.23;97741.16;5065976;28;932;-82
2023/06/02 01:04:14;;;;;;;;;;;;;;;22.11;29.25;97742.00;5032188;28;1526;-81
2023/06/02 01:06:40;;;;;;;;;;;;;;;21.66;29.99;97751.50;5016568;28;1124;-81
2023/06/02 01:09:06;;;;;;;;;;;;;;;21.70;29.91;97751.38;5048218;28;842;-82
2023/06/02 01:11:32;;;;;;;;;;;;;;;21.65;29.94;97749.88;5049333;28;1304;-81
2023/06/02 01:13:57;;;;;;;;;;;;;;;21.39;30.30;97748.25;5048245;28;1898;-82
2023/06/02 01:16:23;;;;;;;;;;;;;;;21.48;29.98;97734.25;5013587;28;1266;-82
2023/06/02 01:18:49;;;;;;;;;;;;;;;21.39;30.35;97753.94;5045153;28;967;-81
2023/06/02 01:21:23;;;;;;;;;;;;;;;21.23;30.17;97746.28;5061149;28;952;-82
2023/06/02 01:23:52;;;;;;;;;;;;;;;21.09;30.47;97741.84;5050162;28;791;-81
2023/06/02 01:26:18;;;;;;;;;;;;;;;21.51;30.02;97744.69;5049063;28;1204;-81
2023/06/02 01:28:43;;;;;;;;;;;;;;;21.31;30.03;97740.00;5015664;28;1122;-81
2023/06/02 01:31:16;;;;;;;;;;;;;;;21.16;30.30;97744.44;5032731;28;1303;-82
2023/06/02 01:33:43;;;;;;;;;;;;;;;21.37;29.95;97740.22;5015170;28;1271;-82
2023/06/02 01:36:09;;;;;;;;;;;;;;;21.51;29.85;97744.69;5033457;28;913;-82
2023/06/02 01:38:35;;;;;;;;;;;;;;;21.08;30.34;97741.03;5047400;28;1208;-82
2023/06/02 01:41:01;;;;;;;;;;;;;;;21.88;29.35;97739.50;5069512;28;927;-80
2023/06/02 01:43:26;;;;;;;;;;;;;;;22.02;29.09;97739.84;5067723;28;1276;-82
2023/06/02 01:45:52;;;;;;;;;;;;;;;22.21;28.91;97735.19;5053167;28;1150;-81
2023/06/02 01:48:17;;;;;;;;;;;;;;;21.58;29.70;97738.78;5069570;28;1107;-81
2023/06/02 01:50:44;;;;;;;;;;;;;;;21.45;29.99;97746.47;5109111;28;1017;-82
2023/06/02 01:53:09;;;;;;;;;;;;;;;21.49;29.85;97738.66;5091186;28;914;-82
2023/06/02 01:55:35;;;;;;;;;;;;;;;21.36;29.77;97744.31;5069135;28;1906;-81
2023/06/02 01:58:00;;;;;;;;;;;;;;;21.43;29.96;97737.63;5034895;28;1262;-82
2023/06/02 02:00:26;;;;;;;;;;;;;;;21.37;29.91;97745.09;5069380;28;1157;-81
2023/06/02 02:02:52;;;;;;;;;;;;;;;21.35;29.77;97744.75;5068207;28;858;-81
2023/06/02 02:05:18;;;;;;;;;;;;;;;21.48;29.29;97745.56;5068663;28;886;-81
2023/06/02 02:07:45;;;;;;;;;;;;;;;21.34;29.71;97741.13;5069308;28;904;-81
2023/06/02 02:10:11;;;;;;;;;;;;;;;21.61;29.54;97743.56;5068649;28;885;-82
2023/06/02 02:12:37;;;;;;;;;;;;;;;21.59;29.29;97740.38;5068858;28;1048;-82
2023/06/02 02:15:04;;;;;;;;;;;;;;;21.40;29.42;97745.00;5034923;28;1957;-82
2023/06/02 02:17:30;;;;;;;;;;;;;;;21.34;29.54;97738.28;5033937;28;1182;-82
2023/06/02 02:19:56;;;;;;;;;;;;;;;21.33;29.65;97737.50;5015510;28;1149;-81
2023/06/02 02:22:23;;;;;;;;;;;;;;;21.26;29.96;97734.84;5016620;28;1083;-82
2023/06/02 02:24:48;;;;;;;;;;;;;;;21.25;29.81;97733.28;5014736;28;1167;-82
2023/06/02 02:27:14;;;;;;;;;;;;;;;21.53;29.41;97728.81;5061305;28;960;-82
2023/06/02 02:29:39;;;;;;;;;;;;;;;22.21;28.46;97718.19;5068138;28;1176;-81
2023/06/02 02:32:06;;;;;;;;;;;;;;;22.05;28.87;97721.13;5070521;28;1302;-82
2023/06/02 02:34:32;;;;;;;;;;;;;;;21.92;29.02;97723.19;5068956;28;1956;-81
2023/06/02 02:37:02;;;;;;;;;;;;;;;21.69;29.16;97727.13;5069483;28;1097;-82
2023/06/02 02:39:29;;;;;;;;;;;;;;;21.58;29.27;97727.47;5085231;28;1354;-82
2023/06/02 02:41:55;;;;;;;;;;;;;;;21.67;29.15;97735.28;5069553;28;1174;-81
2023/06/02 02:44:22;;;;;;;;;;;;;;;21.72;28.94;97727.03;5068294;28;1112;-81
2023/06/02 02:46:47;;;;;;;;;;;;;;;21.63;29.06;97738.22;5069473;28;1185;-82
2023/06/02 02:49:13;;;;;;;;;;;;;;;21.44;29.38;97745.66;5067755;28;1234;-81
2023/06/02 02:51:38;;;;;;;;;;;;;;;21.38;29.68;97746.69;5069454;28;1351;-81
2023/06/02 02:54:04;;;;;;;;;;;;;;;21.44;29.21;97751.31;5067811;28;1977;-82
2023/06/02 02:56:30;;;;;;;;;;;;;;;21.45;29.27;97754.94;5068882;28;1267;-81
2023/06/02 02:58:59;;;;;;;;;;;;;;;21.37;29.63;97745.09;5067958;28;1223;-81
2023/06/02 03:01:26;;;;;;;;;;;;;;;21.45;29.51;97749.28;5052467;28;1257;-82
2023/06/02 03:03:53;;;;;;;;;;;;;;;21.32;29.64;97752.91;5068361;28;1347;-82
2023/06/02 03:06:19;;;;;;;;;;;;;;;21.13;29.70;97753.03;5070419;28;874;-81
2023/06/02 03:08:46;;;;;;;;;;;;;;;21.32;29.30;97752.91;5068406;28;1227;-81
2023/06/02 03:11:13;;;;;;;;;;;;;;;21.44;29.11;97756.19;5084943;28;762;-81
2023/06/02 03:13:38;;;;;;;;;;;;;;;22.04;28.58;97747.88;5066908;28;1209;-82
2023/06/02 03:16:04;;;;;;;;;;;;;;;22.36;28.22;97747.63;5068778;28;2356;-82
2023/06/02 03:18:32;;;;;;;;;;;;;;;22.16;28.47;97755.59;5067601;28;1174;-82
2023/06/02 03:20:58;;;;;;;;;;;;;;;21.78;29.11;97756.38;5069581;28;1271;-81
2023/06/02 03:23:25;;;;;;;;;;;;;;;21.54;29.19;97755.88;5066986;28;1240;-82
2023/06/02 03:25:51;;;;;;;;;;;;;;;21.50;29.52;97765.72;5069588;28;1243;-81
2023/06/02 03:28:17;;;;;;;;;;;;;;;21.60;29.08;97758.94;5083193;28;937;-82
2023/06/02 03:30:44;;;;;;;;;;;;;;;21.66;28.84;97751.50;5068888;28;1311;-81
2023/06/02 03:33:10;;;;;;;;;;;;;;;21.61;29.00;97749.22;5067692;28;1091;-82
2023/06/02 03:35:36;;;;;;;;;;;;;;;21.55;29.17;97753.84;5063966;28;1887;-82
2023/06/02 03:38:05;;;;;;;;;;;;;;;21.51;29.19;97756.00;5102769;28;1378;-82
2023/06/02 03:40:30;;;;;;;;;;;;;;;21.36;29.72;97746.34;5089469;28;977;-80
2023/06/02 03:42:56;;;;;;;;;;;;;;;21.26;29.80;97743.34;5087423;28;1123;-82
2023/06/02 03:45:22;;;;;;;;;;;;;;;21.41;29.34;97740.13;5088039;28;1205;-82
2023/06/02 03:47:47;;;;;;;;;;;;;;;21.31;29.72;97742.03;5104419;28;1176;-81
2023/06/02 03:50:15;;;;;;;;;;;;;;;21.46;29.43;97737.53;5087216;28;1089;-82
2023/06/02 03:52:41;;;;;;;;;;;;;;;21.67;28.98;97736.09;5087569;28;1243;-82
2023/06/02 03:55:07;;;;;;;;;;;;;;;21.48;29.47;97742.75;5069577;28;1894;-82
2023/06/02 03:57:33;;;;;;;;;;;;;;;21.36;29.33;97737.88;5103730;28;1260;-82
2023/06/02 03:59:59;;;;;;;;;;;;;;;21.12;29.97;97740.13;5086342;28;1241;-81
2023/06/02 04:02:26;;;;;;;;;;;;;;;21.43;29.18;97737.63;5071404;28;1249;-81
2023/06/02 04:04:52;;;;;;;;;;;;;;;21.36;29.51;97744.31;5082530;28;1383;-82
2023/06/02 04:07:18;;;;;;;;;;;;;;;22.18;28.55;97741.78;5084139;28;1572;-82
2023/06/02 04:09:44;;;;;;;;;;;;;;;21.88;28.94;97745.94;5099389;28;1482;-82
2023/06/02 04:12:09;;;;;;;;;;;;;;;21.67;29.37;97741.75;5086656;28;1303;-82
2023/06/02 04:14:36;;;;;;;;;;;;;;;21.59;29.20;97741.16;5108516;28;1972;-82
2023/06/02 04:17:03;;;;;;;;;;;;;;;21.55;29.27;97746.16;5076790;28;1130;-82
2023/06/02 04:19:29;;;;;;;;;;;;;;;21.38;29.62;97741.03;5092161;28;1232;-82
2023/06/02 04:21:55;;;;;;;;;;;;;;;21.42;29.48;97741.72;5108883;28;1503;-82
2023/06/02 04:24:21;;;;;;;;;;;;;;;21.23;29.73;97741.41;5070724;28;1411;-82
2023/06/02 04:26:46;;;;;;;;;;;;;;;21.43;29.53;97737.63;5089101;28;1711;-82
2023/06/02 04:29:13;;;;;;;;;;;;;;;21.41;29.69;97742.97;5093397;28;1685;-82
2023/06/02 04:31:43;;;;;;;;;;;;;;;21.52;29.82;97746.25;5109827;28;1300;-82
2023/06/02 04:34:12;;;;;;;;;;;;;;;21.42;29.72;97744.53;5088645;28;1961;-82
2023/06/02 04:36:39;;;;;;;;;;;;;;;21.53;29.68;97742.19;5091053;28;1293;-82
2023/06/02 04:39:07;;;;;;;;;;;;;;;21.44;29.92;97742.03;5106135;28;976;-82
2023/06/02 04:41:34;;;;;;;;;;;;;;;21.47;29.77;97746.81;5089444;28;1302;-82
2023/06/02 04:44:00;;;;;;;;;;;;;;;21.50;29.60;97741.06;5097739;28;1300;-81
2023/06/02 04:46:26;;;;;;;;;;;;;;;21.36;29.82;97737.88;5055982;28;1356;-82
2023/06/02 04:48:52;;;;;;;;;;;;;;;21.50;29.73;97748.72;5083965;28;1653;-82
2023/06/02 04:51:19;;;;;;;;;;;;;;;21.32;30.05;97738.75;5083502;28;786;-82
2023/06/02 04:53:44;;;;;;;;;;;;;;;21.38;29.92;97746.69;5064989;28;906;-82
2023/06/02 04:56:10;;;;;;;;;;;;;;;21.88;29.45;97745.94;5349794;22;3621;-74
2023/06/02 04:58:46;;;;;;;;;;;;;;;22.92;28.95;97743.28;5162194;22;3532;31
2023/06/02 05:01:13;;;;;;;;;;;;;;;23.41;29.17;97745.53;4997707;28;1478;-74
2023/06/02 05:03:39;;;;;;;;;;;;;;;22.98;30.04;97746.34;4993401;28;1164;-75
2023/06/02 05:06:05;;;;;;;;;;;;;;;22.24;31.50;97742.78;5009450;28;1614;-75
2023/06/02 05:08:31;;;;;;;;;;;;;;;21.72;32.12;97749.69;4999409;28;1144;-75
2023/06/02 05:10:56;;;;;;;;;;;;;;;21.97;30.89;97733.94;5015862;28;1159;-75
2023/06/02 05:13:23;;;;;;;;;;;;;;;21.85;31.33;97741.19;4999130;28;1060;-75
2023/06/02 05:15:49;;;;;;;;;;;;;;;21.75;30.97;97737.44;4999366;28;1969;-75
2023/06/02 05:18:15;;;;;;;;;;;;;;;21.63;31.10;97741.06;5010102;28;1686;-75
2023/06/02 05:20:42;;;;;;;;;;;;;;;21.75;30.65;97731.78;4979998;28;1219;-74
2023/06/02 05:23:07;;;;;;;;;;;;;;;21.81;30.04;97734.81;5012325;28;1329;-76
2023/06/02 05:25:34;;;;;;;;;;;;;;;21.64;30.32;97736.97;4983167;28;1078;-75
2023/06/02 05:28:00;;;;;;;;;;;;;;;21.69;30.26;97744.91;5015882;28;1181;-74
2023/06/02 05:30:26;;;;;;;;;;;;;;;21.55;30.12;97745.34;5015698;28;1083;-75
2023/06/02 05:32:52;;;;;;;;;;;;;;;21.77;29.71;97737.78;4999298;28;1625;-75
2023/06/02 05:35:18;;;;;;;;;;;;;;;21.69;29.49;97744.91;5012695;28;1910;-75
2023/06/02 05:37:44;;;;;;;;;;;;;;;21.52;29.91;97746.25;5001738;28;1413;-74
2023/06/02 05:40:11;;;;;;;;;;;;;;;21.53;29.42;97753.50;5002710;28;1349;-74
2023/06/02 05:42:37;;;;;;;;;;;;;;;21.49;29.47;97747.94;5002495;28;1238;-75
2023/06/02 05:45:05;;;;;;;;;;;;;;;21.48;29.50;97745.56;5018610;28;1322;-75
2023/06/02 05:47:32;;;;;;;;;;;;;;;21.26;29.79;97745.38;5018574;28;947;-74
2023/06/02 05:49:58;;;;;;;;;;;;;;;21.36;29.34;97741.47;5018639;28;1286;-76
2023/06/02 05:52:24;;;;;;;;;;;;;;;21.37;29.37;97745.09;5002413;28;1267;-76
2023/06/02 05:54:50;;;;;;;;;;;;;;;21.63;28.71;97738.22;5029614;28;1961;-75
2023/06/02 05:57:17;;;;;;;;;;;;;;;21.49;28.89;97741.50;5004259;28;1437;-74
2023/06/02 05:59:43;;;;;;;;;;;;;;;21.27;29.13;97744.94;5018343;28;1187;-75
2023/06/02 06:02:09;;;;;;;;;;;;;;;21.38;28.74;97746.69;5002024;28;1435;-75
2023/06/02 06:04:37;;;;;;;;;;;;;;;21.31;29.35;97740.00;5002085;28;1584;-74
2023/06/02 06:07:02;;;;;;;;;;;;;;;21.97;28.44;97739.63;5002630;28;915;-75
2023/06/02 06:09:30;;;;;;;;;;;;;;;21.85;28.52;97746.84;5002183;28;1219;-74
2023/06/02 06:11:56;;;;;;;;;;;;;;;21.94;28.49;97737.69;5002443;28;1333;-75
2023/06/02 06:14:21;;;;;;;;;;;;;;;21.71;28.77;97745.28;5039167;28;1917;-75
2023/06/02 06:16:47;;;;;;;;;;;;;;;21.63;28.92;97741.06;5021800;28;1106;-75
2023/06/02 06:19:12;;;;;;;;;;;;;;;21.52;28.64;97740.59;5039667;28;900;-76
2023/06/02 06:21:38;;;;;;;;;;;;;;;21.40;28.96;97755.50;5021399;28;1373;-75
2023/06/02 06:24:07;;;;;;;;;;;;;;;21.47;28.76;97739.13;5002679;28;1407;-75
2023/06/02 06:26:33;;;;;;;;;;;;;;;21.47;28.46;97741.16;5001841;28;1193;-75
2023/06/02 06:28:59;;;;;;;;;;;;;;;21.67;28.15;97740.97;5017893;28;1032;-74
2023/06/02 06:31:25;;;;;;;;;;;;;;;21.42;28.74;97744.53;4958311;28;1226;-76
2023/06/02 06:33:51;;;;;;;;;;;;;;;21.37;28.40;97740.22;4942001;29;1652;-75
2023/06/02 06:36:17;;;;;;;;;;;;;;;21.32;28.56;97735.91;4957774;28;1969;-75
2023/06/02 06:38:42;;;;;;;;;;;;;;;20.96;29.35;97760.78;4938957;29;937;-75
2023/06/02 06:41:08;;;;;;;;;;;;;;;21.85;27.88;97736.31;4939602;29;1172;-74
2023/06/02 06:43:34;;;;;;;;;;;;;;;22.02;27.54;97733.34;4919273;29;1377;-75
2023/06/02 06:46:18;;;;;;;;;;;;;;;22.01;27.48;97732.56;4906986;29;1154;-75
2023/06/02 06:48:45;;;;;;;;;;;;;;;21.65;28.19;97737.78;4920041;29;1255;-75
2023/06/02 06:51:11;;;;;;;;;;;;;;;21.45;28.38;97744.44;4904604;29;1209;-74
2023/06/02 06:53:36;;;;;;;;;;;;;;;21.56;28.44;97744.91;4903906;29;1648;-75
2023/06/02 06:56:02;;;;;;;;;;;;;;;21.51;28.30;97744.69;4904325;29;1876;-76
2023/06/02 06:58:28;;;;;;;;;;;;;;;21.30;28.77;97741.25;4888387;29;1445;-74
2023/06/02 07:00:54;;;;;;;;;;;;;;;21.30;29.06;97746.13;4919514;29;1443;-75
2023/06/02 07:03:19;;;;;;;;;;;;;;;21.37;28.93;97745.09;4953508;29;999;-75
2023/06/02 07:05:45;;;;;;;;;;;;;;;21.33;28.58;97746.00;4942264;29;1190;-74
2023/06/02 07:08:11;;;;;;;;;;;;;;;21.58;28.57;97744.44;4957698;29;906;-75
2023/06/02 07:10:36;;;;;;;;;;;;;;;21.47;28.59;97746.81;4957772;28;1401;-76
2023/06/02 07:13:02;;;;;;;;;;;;;;;21.42;28.80;97741.72;4941859;29;933;-75
2023/06/02 07:15:27;;;;;;;;;;;;;;;21.41;28.55;97738.09;4963443;28;1910;-75
2023/06/02 07:17:53;;;;;;;;;;;;;;;21.97;27.89;97748.91;4997559;28;895;-75
2023/06/02 07:20:18;;;;;;;;;;;;;;;22.01;27.64;97743.88;5016245;28;1321;-74
2023/06/02 07:22:44;;;;;;;;;;;;;;;22.00;27.85;97741.53;5037746;28;909;-74
2023/06/02 07:25:09;;;;;;;;;;;;;;;21.97;28.00;97739.63;5020237;28;1300;-75
2023/06/02 07:27:35;;;;;;;;;;;;;;;21.45;28.75;97749.28;5004011;28;1035;-75
2023/06/02 07:30:01;;;;;;;;;;;;;;;21.57;28.42;97759.84;5017714;28;1420;-75
2023/06/02 07:32:26;;;;;;;;;;;;;;;21.39;29.02;97760.38;5003951;28;1434;-75
2023/06/02 07:34:52;;;;;;;;;;;;;;;21.54;28.69;97760.75;5020426;28;1914;-75
2023/06/02 07:37:17;;;;;;;;;;;;;;;21.61;28.54;97771.88;5020337;28;845;-75
2023/06/02 07:39:43;;;;;;;;;;;;;;;21.47;28.57;97766.63;5018966;28;1269;-75
2023/06/02 07:42:08;;;;;;;;;;;;;;;21.47;28.86;97766.63;5018491;28;1330;-75
2023/06/02 07:44:34;;;;;;;;;;;;;;;21.24;29.25;97770.50;4987529;28;1283;-74
2023/06/02 07:46:59;;;;;;;;;;;;;;;21.54;28.66;97774.91;5020123;28;1128;-75
2023/06/02 07:49:25;;;;;;;;;;;;;;;21.29;28.92;97773.56;5019760;28;917;-75
2023/06/02 07:51:50;;;;;;;;;;;;;;;21.55;28.85;97773.66;5029458;28;1272;-75
2023/06/02 07:54:16;;;;;;;;;;;;;;;21.58;28.73;97773.56;4996736;28;1918;-75
2023/06/02 07:56:41;;;;;;;;;;;;;;;21.41;28.91;97774.09;4997076;28;1100;-75
2023/06/02 07:59:09;;;;;;;;;;;;;;;21.44;28.93;97773.19;4997274;28;1034;-74
2023/06/02 08:01:34;;;;;;;;;;;;;;;21.46;28.84;97782.81;4981536;28;1420;-76
2023/06/02 08:04:00;;;;;;;;;;;;;;;21.39;28.94;97777.34;5016219;28;1401;-75
2023/06/02 08:06:25;;;;;;;;;;;;;;;21.46;29.05;97782.81;5000188;28;1218;-74
2023/06/02 08:08:51;;;;;;;;;;;;;;;21.44;28.98;97773.97;5000041;28;929;-75
2023/06/02 08:11:17;;;;;;;;;;;;;;;21.40;29.14;97778.16;4999757;28;1158;-75
2023/06/02 08:13:42;;;;;;;;;;;;;;;21.66;28.42;97779.81;4999396;28;1527;-75
2023/06/02 08:16:09;;;;;;;;;;;;;;;21.61;28.63;97783.19;5015850;28;1981;-75
2023/06/02 08:18:34;;;;;;;;;;;;;;;21.46;28.80;97774.34;5015849;28;925;-74
2023/06/02 08:21:00;;;;;;;;;;;;;;;21.37;29.22;97779.06;5017175;28;959;-76
2023/06/02 08:23:27;;;;;;;;;;;;;;;21.12;29.53;97774.09;5015444;28;1751;-74
2023/06/02 08:25:54;;;;;;;;;;;;;;;21.21;29.55;97765.75;5017087;28;1150;-75
2023/06/02 08:28:24;;;;;;;;;;;;;;;21.29;29.22;97767.91;5015852;28;904;-75
2023/06/02 08:30:51;;;;;;;;;;;;;;;21.20;29.48;97764.16;4999384;28;987;-74
2023/06/02 08:33:17;;;;;;;;;;;;;;;21.47;28.98;97760.97;4974831;28;1332;-74
2023/06/02 08:35:43;;;;;;;;;;;;;;;21.91;28.41;97756.34;4943674;28;1919;-75
2023/06/02 08:38:09;;;;;;;;;;;;;;;22.07;28.07;97758.28;4943557;28;1113;-75
2023/06/02 08:40:36;;;;;;;;;;;;;;;21.85;28.50;97752.50;4975750;28;1074;-75
2023/06/02 08:43:03;;;;;;;;;;;;;;;21.89;28.47;97758.06;4951337;28;1448;-76
2023/06/02 08:45:29;;;;;;;;;;;;;;;21.67;28.67;97761.56;4959632;28;939;-76
2023/06/02 08:47:55;;;;;;;;;;;;;;;21.39;28.92;97762.41;4975354;28;1005;-75
2023/06/02 08:50:21;;;;;;;;;;;;;;;21.38;29.30;97769.31;4959565;28;1226;-75
2023/06/02 08:52:46;;;;;;;;;;;;;;;21.40;29.25;97764.00;4958971;28;1474;-75
2023/06/02 08:55:12;;;;;;;;;;;;;;;21.31;29.28;97754.16;4975500;28;1907;-76
2023/06/02 08:57:37;;;;;;;;;;;;;;;21.31;29.48;97754.16;4975459;28;953;-75
2023/06/02 09:00:04;;;;;;;;;;;;;;;21.31;29.32;97754.16;4961965;28;1177;-75
2023/06/02 09:02:30;;;;;;;;;;;;;;;21.45;29.11;97760.63;4946449;28;1448;-74
2023/06/02 09:04:56;;;;;;;;;;;;;;;21.10;29.64;97760.41;4947457;28;1372;-75
2023/06/02 09:07:22;;;;;;;;;;;;;;;21.45;29.08;97758.59;4983761;28;1228;-75
2023/06/02 09:09:48;;;;;;;;;;;;;;;21.41;29.16;97762.78;4983484;28;1542;-75
2023/06/02 09:12:18;;;;;;;;;;;;;;;21.44;29.10;97759.03;5004625;28;1469;-74
2023/06/02 09:14:44;;;;;;;;;;;;;;;21.37;29.12;97770.56;5018879;28;1955;-75
2023/06/02 09:17:23;;;;;;;;;;;;;;;21.60;28.99;97770.25;5020790;28;897;-75
2023/06/02 09:19:52;;;;;;;;;;;;;;;21.24;29.47;97762.81;5019004;28;1321;-75
2023/06/02 09:22:17;;;;;;;;;;;;;;;21.40;29.12;97766.81;5018859;28;1308;-75
2023/06/02 09:24:43;;;;;;;;;;;;;;;21.33;29.41;97765.78;5019162;28;1327;-75
2023/06/02 09:27:11;;;;;;;;;;;;;;;21.13;29.77;97762.31;5020391;28;860;-75
2023/06/02 09:29:37;;;;;;;;;;;;;;;21.23;29.49;97758.38;5019148;28;1001;-74
2023/06/02 09:32:04;;;;;;;;;;;;;;;21.43;29.08;97763.09;5018290;28;1667;-75
2023/06/02 09:34:35;;;;;;;;;;;;;;;21.59;28.85;97758.16;4958759;29;1977;-75
2023/06/02 09:37:11;;;;;;;;;;;;;;;21.51;29.01;97756.78;4943759;29;926;-75
2023/06/02 09:39:43;;;;;;;;;;;;;;;21.53;28.89;97759.16;4943614;29;917;-75
2023/06/02 09:42:17;;;;;;;;;;;;;;;21.57;29.04;97755.00;4943419;29;1328;-75
2023/06/02 09:45:01;;;;;;;;;;;;;;;21.59;29.14;97757.34;4958908;29;1027;-65
2023/06/02 09:47:26;;;;;;;;;;;;;;;22.28;29.67;97746.28;4977435;28;1834;-67
2023/06/02 09:49:52;;;;;;;;;;;;;;;22.15;29.74;97737.00;4979175;28;898;-76
2023/06/02 09:52:18;;;;;;;;;;;;;;;21.97;29.94;97737.56;4979634;28;1207;-76
2023/06/02 09:54:43;;;;;;;;;;;;;;;21.79;29.89;97738.13;4979133;28;1914;-75
2023/06/02 09:57:10;;;;;;;;;;;;;;;21.82;29.94;97728.72;4979264;28;886;-76
2023/06/02 09:59:36;;;;;;;;;;;;;;;21.78;29.93;97736.53;4978912;28;1180;-76
2023/06/02 10:02:02;;;;;;;;;;;;;;;21.52;30.26;97734.94;4962316;28;1390;-76
2023/06/02 10:04:27;;;;;;;;;;;;;;;21.35;30.54;97725.75;4964317;28;909;-75
2023/06/02 10:07:06;;;;;;;;;;;;;;;21.14;30.52;97731.97;4993559;28;1327;-75
2023/06/02 10:09:53;;;;;;;;;;;;;;;21.24;30.36;97726.03;5015182;28;1371;-75
2023/06/02 10:12:37;;;;;;;;;;;;;;;21.41;30.07;97731.66;5004422;28;1381;-75
2023/06/02 10:15:28;;;;;;;;;;;;;;;21.31;30.31;97714.53;5039304;28;1977;-72
2023/06/02 10:17:57;;;;;;;;;;;;;;;21.52;29.90;97720.78;4997139;28;1582;-76
2023/06/02 10:20:26;;;;;;;;;;;;;;;21.45;29.91;97715.31;5022002;28;1168;-70
2023/06/02 10:22:58;;;;;;;;;;;;;;;22.14;29.21;97715.59;5021623;28;958;-75
2023/06/02 10:25:31;;;;;;;;;;;;;;;21.66;29.66;97723.19;5023123;28;990;-75
2023/06/02 10:27:56;;;;;;;;;;;;;;;22.45;29.23;97714.97;5010499;28;1300;-75
2023/06/02 10:30:24;;;;;;;;;;;;;;;23.06;29.77;97716.47;5019366;28;946;-76
2023/06/02 10:32:49;;;;;;;;;;;;;;;22.58;30.78;97702.31;5020041;28;911;-76
2023/06/02 10:35:16;;;;;;;;;;;;;;;22.33;31.13;97716.59;5018790;28;1914;-77
2023/06/02 10:37:41;;;;;;;;;;;;;;;22.01;31.18;97711.94;5002658;28;1357;-76
2023/06/02 10:40:10;;;;;;;;;;;;;;;21.94;31.30;97700.84;5018436;28;926;-76
2023/06/02 10:42:35;;;;;;;;;;;;;;;22.09;30.70;97710.47;4998287;28;1002;-76
2023/06/02 10:45:26;;;;;;;;;;;;;;;22.08;30.58;97703.22;4981530;28;963;-76
2023/06/02 10:47:52;;;;;;;;;;;;;;;21.69;30.98;97710.94;4997017;28;1780;-75
2023/06/02 10:50:21;;;;;;;;;;;;;;;21.75;30.75;97702.66;4981317;28;1200;-76
2023/06/02 10:53:03;;;;;;;;;;;;;;;21.77;30.40;97706.63;4982051;28;1108;-75
2023/06/02 10:55:30;;;;;;;;;;;;;;;21.53;30.56;97713.88;4997827;28;1972;-76
2023/06/02 10:57:56;;;;;;;;;;;;;;;21.48;30.68;97711.59;4997202;28;1477;-76
2023/06/02 11:00:35;;;;;;;;;;;;;;;21.54;30.16;97698.47;4997622;28;1274;-76
2023/06/02 11:03:04;;;;;;;;;;;;;;;21.48;30.15;97705.94;4981087;28;1113;-75
2023/06/02 11:05:30;;;;;;;;;;;;;;;21.65;29.96;97701.75;4981294;28;906;-76
2023/06/02 11:08:23;;;;;;;;;;;;;;;21.54;29.88;97698.47;4974117;28;1679;-75
2023/06/02 11:10:53;;;;;;;;;;;;;;;21.72;29.18;97692.25;5017270;28;1225;-76
2023/06/02 11:13:19;;;;;;;;;;;;;;;21.72;29.17;97698.72;5005607;28;948;-75
2023/06/02 11:15:54;;;;;;;;;;;;;;;21.53;29.34;97691.22;5001678;28;1906;-76
2023/06/02 11:18:22;;;;;;;;;;;;;;;21.77;29.20;97694.53;5006964;28;1520;-76
2023/06/02 11:20:49;;;;;;;;;;;;;;;21.77;28.70;97683.19;5001183;28;1315;-76
2023/06/02 11:23:15;;;;;;;;;;;;;;;21.77;28.81;97684.00;5016615;28;921;-75
2023/06/02 11:25:41;;;;;;;;;;;;;;;21.72;29.03;97678.88;5018677;28;953;-76
2023/06/02 11:28:15;;;;;;;;;;;;;;;21.74;28.96;97690.53;5016315;28;1357;-76
2023/06/02 11:30:40;;;;;;;;;;;;;;;21.79;28.37;97692.03;5001524;28;1404;-75
2023/06/02 11:33:06;;;;;;;;;;;;;;;21.83;28.35;97685.00;5017005;28;1011;-75
2023/06/02 11:35:31;;;;;;;;;;;;;;;21.50;28.84;97683.63;5016953;28;1980;-75
2023/06/02 11:38:04;;;;;;;;;;;;;;;21.79;28.33;97684.31;5009288;28;1297;-75
2023/06/02 11:40:30;;;;;;;;;;;;;;;21.81;28.49;97684.66;5004220;28;1075;-76
2023/06/02 11:42:55;;;;;;;;;;;;;;;21.63;28.80;97678.78;5020380;28;949;-76
2023/06/02 11:45:22;;;;;;;;;;;;;;;21.55;28.95;97680.22;5020330;28;844;-76
2023/06/02 11:47:48;;;;;;;;;;;;;;;21.52;28.67;97679.13;5018751;28;1273;-76
2023/06/02 11:50:17;;;;;;;;;;;;;;;21.52;28.59;97670.63;5017967;28;974;-76
2023/06/02 11:52:43;;;;;;;;;;;;;;;21.81;28.43;97666.84;5020842;28;882;-76
2023/06/02 11:55:10;;;;;;;;;;;;;;;21.42;28.85;97663.25;4995799;28;1967;-76
2023/06/02 11:57:36;;;;;;;;;;;;;;;21.44;28.83;97665.63;4978721;28;1513;-75
2023/06/02 12:00:12;;;;;;;;;;;;;;;21.43;28.74;97658.38;4995368;28;1541;-76
2023/06/02 12:02:38;;;;;;;;;;;;;;;21.04;29.26;97671.66;4980342;28;925;-75
2023/06/02 12:05:08;;;;;;;;;;;;;;;21.09;29.35;97668.28;4979776;28;889;-75
2023/06/02 12:07:34;;;;;;;;;;;;;;;21.57;28.29;97669.25;4957742;28;1356;-75
2023/06/02 12:09:59;;;;;;;;;;;;;;;21.44;28.43;97662.78;4976646;28;981;-75
2023/06/02 12:12:25;;;;;;;;;;;;;;;21.44;28.63;97666.41;4976757;28;1013;-75
2023/06/02 12:14:50;;;;;;;;;;;;;;;21.41;28.61;97666.53;4976121;28;1914;-76
2023/06/02 12:17:16;;;;;;;;;;;;;;;21.39;28.69;97669.81;4978199;28;1337;-76
2023/06/02 12:19:41;;;;;;;;;;;;;;;21.58;28.20;97656.69;4995772;28;1010;-76
2023/06/02 12:22:13;;;;;;;;;;;;;;;21.43;28.46;97664.03;4996214;28;1115;-76
2023/06/02 12:24:38;;;;;;;;;;;;;;;21.38;28.63;97661.78;4980356;28;1008;-76
2023/06/02 12:27:05;;;;;;;;;;;;;;;21.40;28.25;97676.25;5010826;28;1532;-76
2023/06/02 12:29:31;;;;;;;;;;;;;;;21.35;28.64;97671.16;5013001;28;921;-75
2023/06/02 12:31:56;;;;;;;;;;;;;;;21.29;28.70;97670.91;4976101;28;1024;-75
2023/06/02 12:34:22;;;;;;;;;;;;;;;21.45;28.43;97656.69;4959672;28;1914;-75
2023/06/02 12:36:47;;;;;;;;;;;;;;;21.14;28.79;97670.56;4976642;28;984;-76
2023/06/02 12:39:13;;;;;;;;;;;;;;;21.31;28.62;97666.41;4975432;28;1556;-76
2023/06/02 12:41:38;;;;;;;;;;;;;;;21.90;28.07;97666.19;4976756;28;850;-75
2023/06/02 12:44:04;;;;;;;;;;;;;;;21.79;28.29;97658.81;4975972;28;944;-75
2023/06/02 12:46:30;;;;;;;;;;;;;;;22.03;28.05;97666.97;4940839;29;917;-76
2023/06/02 12:48:58;;;;;;;;;;;;;;;21.75;28.32;97657.34;4955625;29;1458;-75
2023/06/02 12:51:24;;;;;;;;;;;;;;;21.71;28.43;97651.81;4925752;29;1021;-76
2023/06/02 12:53:49;;;;;;;;;;;;;;;21.58;28.50;97656.69;4940748;29;965;-75
2023/06/02 12:56:15;;;;;;;;;;;;;;;21.19;29.22;97655.84;4941030;29;1966;-76
2023/06/02 12:58:40;;;;;;;;;;;;;;;21.72;28.16;97653.41;4927589;29;1505;-76